createdAt,value
2022-09-07T00:00:36.520Z,22.11
2022-09-07T00:03:03.717Z,22.09
2022-09-07T00:09:10.750Z,21.63
2022-09-07T00:11:37.183Z,22.07
2022-09-07T00:14:03.742Z,21.80
2022-09-07T00:16:31.075Z,21.14
2022-09-07T00:19:00.131Z,20.36
2022-09-07T00:21:26.987Z,20.00
2022-09-07T00:23:53.589Z,19.79
2022-09-07T00:26:23.479Z,19.81
2022-09-07T00:28:50.350Z,19.63
2022-09-07T00:31:22.315Z,19.68
2022-09-07T00:33:50.171Z,19.49
2022-09-07T00:36:18.221Z,19.34
2022-09-07T00:38:44.852Z,19.47
2022-09-07T00:41:11.701Z,19.40
2022-09-07T00:43:41.164Z,19.30
2022-09-07T00:46:15.721Z,19.34
2022-09-07T00:49:03.930Z,19.25
2022-09-07T00:51:40.729Z,19.21
2022-09-07T00:54:13.231Z,19.24
2022-09-07T00:56:42.195Z,19.37
2022-09-07T00:59:09.587Z,19.33
2022-09-07T01:01:36.287Z,19.35
2022-09-07T01:04:03.298Z,19.14
2022-09-07T01:06:35.460Z,19.11
2022-09-07T01:09:31.203Z,18.97
2022-09-07T01:11:59.146Z,18.97
2022-09-07T01:14:34.679Z,18.85
2022-09-07T01:17:35.153Z,18.84
2022-09-07T01:20:31.545Z,18.73
2022-09-07T01:23:09.683Z,18.72
2022-09-07T01:25:55.480Z,18.61
2022-09-07T01:28:29.358Z,18.58
2022-09-07T01:31:05.215Z,18.55
2022-09-07T01:33:47.369Z,18.47
2022-09-07T01:36:33.423Z,18.58
2022-09-07T01:39:02.830Z,18.65
2022-09-07T01:41:45.835Z,18.79
2022-09-07T01:44:17.150Z,18.57
2022-09-07T01:46:53.957Z,18.51
2022-09-07T01:50:05.465Z,18.52
2022-09-07T01:52:40.270Z,18.43
2022-09-07T01:55:13.897Z,18.16
2022-09-07T01:57:45.158Z,18.22
2022-09-07T02:00:16.733Z,18.10
2022-09-07T02:02:48.834Z,18.14
2022-09-07T02:05:22.136Z,18.27
2022-09-07T02:07:53.872Z,18.23
2022-09-07T02:10:22.308Z,18.38
2022-09-07T02:13:13.490Z,18.36
2022-09-07T02:15:54.795Z,18.32
2022-09-07T02:18:21.994Z,18.33
2022-09-07T02:20:52.317Z,18.34
2022-09-07T02:23:21.598Z,18.40
2022-09-07T02:25:53.546Z,18.27
2022-09-07T02:28:23.748Z,18.44
2022-09-07T02:30:50.330Z,18.45
2022-09-07T02:33:16.880Z,18.51
2022-09-07T02:35:43.336Z,18.19
2022-09-07T02:38:10.441Z,18.49
2022-09-07T02:40:36.895Z,18.46
2022-09-07T02:43:06.396Z,18.38
2022-09-07T02:46:08.224Z,18.16
2022-09-07T02:48:48.458Z,18.23
2022-09-07T02:51:41.101Z,18.22
2022-09-07T02:54:32.659Z,18.15
2022-09-07T02:57:11.643Z,18.24
2022-09-07T03:00:07.313Z,18.03
2022-09-07T03:03:01.145Z,18.15
2022-09-07T03:05:45.326Z,18.34
2022-09-07T03:08:25.357Z,18.23
2022-09-07T03:10:52.753Z,18.29
2022-09-07T03:13:24.262Z,18.21
2022-09-07T03:15:55.569Z,18.21
2022-09-07T03:18:26.194Z,18.06
2022-09-07T03:24:40.852Z,18.02
2022-09-07T03:27:07.349Z,17.98
2022-09-07T03:29:33.813Z,18.01
2022-09-07T03:32:00.303Z,18.04
2022-09-07T03:34:26.782Z,18.10
2022-09-07T03:36:53.266Z,18.05
2022-09-07T03:39:23.739Z,18.00
2022-09-07T03:41:50.629Z,18.04
2022-09-07T03:44:17.121Z,18.07
2022-09-07T03:46:44.282Z,17.87
2022-09-07T03:49:11.254Z,17.74
2022-09-07T03:51:38.944Z,17.71
2022-09-07T03:54:05.504Z,17.61
2022-09-07T03:56:32.235Z,17.58
2022-09-07T03:58:58.703Z,17.47
2022-09-07T04:01:26.121Z,17.52
2022-09-07T04:03:53.471Z,17.63
2022-09-07T04:06:19.979Z,17.59
2022-09-07T04:08:46.659Z,17.52
2022-09-07T04:11:15.344Z,17.44
2022-09-07T04:13:41.882Z,17.58
2022-09-07T04:16:17.092Z,17.72
2022-09-07T04:18:44.077Z,17.65
2022-09-07T04:21:10.700Z,17.55
2022-09-07T04:23:41.405Z,17.56
2022-09-07T04:26:16.883Z,17.82
2022-09-07T04:28:43.862Z,17.73
2022-09-07T04:31:10.511Z,17.55
2022-09-07T04:33:37.190Z,17.40
2022-09-07T04:36:04.151Z,17.59
2022-09-07T04:38:30.943Z,17.41
2022-09-07T04:41:00.618Z,17.49
2022-09-07T04:43:28.437Z,17.25
2022-09-07T04:45:55.127Z,17.29
2022-09-07T04:48:21.847Z,17.18
2022-09-07T04:50:48.285Z,17.06
2022-09-07T04:53:14.739Z,17.00
2022-09-07T04:55:41.179Z,17.07
2022-09-07T04:58:07.636Z,17.31
2022-09-07T05:00:34.195Z,17.24
2022-09-07T05:03:00.638Z,17.18
2022-09-07T05:05:27.085Z,17.12
2022-09-07T05:07:53.545Z,16.74
2022-09-07T05:10:19.975Z,16.95
2022-09-07T05:12:46.518Z,16.90
2022-09-07T05:15:12.972Z,16.88
2022-09-07T05:17:39.409Z,16.98
2022-09-07T05:20:07.077Z,17.09
2022-09-07T05:22:35.545Z,17.17
2022-09-07T05:25:02.281Z,17.20
2022-09-07T05:27:28.768Z,17.20
2022-09-07T05:32:24.935Z,17.22
2022-09-07T05:34:53.042Z,17.40
2022-09-07T05:37:19.811Z,17.29
2022-09-07T05:39:46.331Z,17.40
2022-09-07T05:42:12.798Z,17.30
2022-09-07T05:47:08.943Z,17.45
2022-09-07T05:49:35.425Z,17.33
2022-09-07T05:52:02.167Z,17.16
2022-09-07T05:54:28.603Z,17.24
2022-09-07T05:56:55.021Z,17.40
2022-09-07T05:59:21.486Z,17.27
2022-09-07T06:01:47.990Z,17.47
2022-09-07T06:04:14.498Z,17.38
2022-09-07T06:06:40.962Z,17.43
2022-09-07T06:09:07.816Z,17.50
2022-09-07T06:11:34.455Z,17.59
2022-09-07T06:14:00.907Z,17.54
2022-09-07T06:16:27.398Z,17.50
2022-09-07T06:18:54.477Z,17.54
2022-09-07T06:21:23.372Z,17.68
2022-09-07T06:23:50.489Z,17.84
2022-09-07T06:26:18.215Z,17.86
2022-09-07T06:28:49.140Z,17.78
2022-09-07T06:31:18.238Z,17.93
2022-09-07T06:33:45.133Z,17.96
2022-09-07T06:36:13.470Z,18.03
2022-09-07T06:38:40.418Z,18.05
2022-09-07T06:44:00.677Z,18.36
2022-09-07T06:49:14.140Z,18.66
2022-09-07T06:51:40.569Z,18.66
2022-09-07T06:56:53.517Z,18.99
2022-09-07T06:59:20.195Z,18.91
2022-09-07T07:01:46.763Z,18.99
2022-09-07T07:04:14.147Z,19.14
2022-09-07T07:06:40.582Z,19.28
2022-09-07T07:09:08.791Z,19.15
2022-09-07T07:11:37.139Z,18.93
2022-09-07T07:14:03.872Z,19.05
2022-09-07T07:16:30.628Z,19.35
2022-09-07T07:18:57.385Z,18.98
2022-09-07T07:21:23.887Z,19.25
2022-09-07T07:23:51.829Z,18.94
2022-09-07T07:26:23.882Z,19.08
2022-09-07T07:29:06.073Z,19.41
2022-09-07T07:31:36.224Z,19.58
2022-09-07T07:34:03.691Z,19.68
2022-09-07T07:36:30.876Z,19.70
2022-09-07T07:44:17.849Z,19.85
2022-09-07T07:46:48.109Z,20.14
2022-09-07T07:49:14.601Z,20.32
2022-09-07T07:54:27.398Z,20.72
2022-09-07T07:56:53.797Z,20.90
2022-09-07T07:59:20.409Z,20.90
2022-09-07T08:01:46.890Z,21.12
2022-09-07T08:04:13.523Z,21.06
2022-09-07T08:06:42.545Z,20.92
2022-09-07T08:09:08.947Z,20.83
2022-09-07T08:11:35.439Z,20.91
2022-09-07T08:14:05.857Z,21.16
2022-09-07T08:16:33.089Z,20.95
2022-09-07T08:18:59.561Z,20.84
2022-09-07T08:21:26.056Z,20.67
2022-09-07T08:23:52.511Z,20.45
2022-09-07T08:26:18.994Z,20.36
2022-09-07T08:28:46.221Z,20.41
2022-09-07T08:31:16.051Z,20.42
2022-09-07T08:33:43.011Z,20.53
2022-09-07T08:36:19.812Z,20.98
2022-09-07T08:38:46.956Z,21.37
2022-09-07T08:41:26.968Z,21.35
2022-09-07T08:44:00.667Z,20.81
2022-09-07T08:46:27.891Z,20.65
2022-09-07T08:48:55.328Z,20.71
2022-09-07T08:51:33.877Z,20.50
2022-09-07T08:54:00.934Z,20.50
2022-09-07T08:56:33.912Z,20.47
2022-09-07T08:59:03.319Z,20.35
2022-09-07T09:01:41.146Z,20.49
2022-09-07T09:04:34.875Z,20.56
2022-09-07T09:07:50.957Z,20.81
2022-09-07T09:10:29.009Z,20.98
2022-09-07T09:13:04.481Z,20.99
2022-09-07T09:15:42.321Z,20.90
2022-09-07T09:18:35.463Z,21.19
2022-09-07T09:21:02.174Z,20.85
2022-09-07T09:23:34.835Z,20.85
2022-09-07T09:26:12.415Z,21.18
2022-09-07T09:28:39.774Z,21.33
2022-09-07T09:31:06.536Z,21.10
2022-09-07T09:33:32.955Z,21.24
2022-09-07T09:36:00.850Z,21.84
2022-09-07T09:38:35.428Z,22.06
2022-09-07T09:41:07.924Z,21.92
2022-09-07T09:43:58.080Z,22.30
2022-09-07T09:46:36.010Z,22.51
2022-09-07T09:49:22.519Z,23.17
2022-09-07T09:54:43.701Z,23.65
2022-09-07T09:57:16.175Z,23.63
2022-09-07T10:00:01.480Z,23.79
2022-09-07T10:05:33.876Z,23.61
2022-09-07T10:08:00.404Z,23.85
2022-09-07T10:10:27.976Z,23.20
2022-09-07T10:12:55.144Z,23.45
2022-09-07T10:15:40.671Z,23.83
2022-09-07T10:18:18.508Z,24.21
2022-09-07T10:20:44.962Z,23.73
2022-09-07T10:23:21.133Z,24.33
2022-09-07T10:25:47.564Z,24.13
2022-09-07T10:28:21.411Z,23.80
2022-09-07T10:31:14.664Z,23.37
2022-09-07T10:37:08.941Z,22.72
2022-09-07T10:39:42.339Z,23.29
2022-09-07T10:42:26.164Z,23.90
2022-09-07T10:45:40.446Z,24.28
2022-09-07T10:48:18.345Z,23.42
2022-09-07T10:50:48.714Z,23.02
2022-09-07T10:57:29.369Z,23.60
2022-09-07T11:00:14.063Z,23.52
2022-09-07T11:06:03.001Z,22.90
2022-09-07T11:14:28.275Z,23.62
2022-09-07T11:17:01.446Z,23.54
2022-09-07T11:19:54.114Z,23.20
2022-09-07T11:22:34.051Z,23.10
2022-09-07T11:25:30.828Z,23.59
2022-09-07T11:28:12.487Z,23.81
2022-09-07T11:30:52.546Z,23.22
2022-09-07T11:33:21.994Z,23.40
2022-09-07T11:35:55.627Z,23.56
2022-09-07T11:38:35.120Z,23.36
2022-09-07T11:41:22.732Z,23.26
2022-09-07T11:44:13.398Z,23.49
2022-09-07T11:46:51.557Z,23.53
2022-09-07T11:49:25.948Z,24.08
2022-09-07T11:51:56.276Z,25.02
2022-09-07T11:54:53.559Z,25.96
2022-09-07T11:57:41.837Z,26.07
2022-09-07T12:00:14.162Z,26.37
2022-09-07T12:02:59.861Z,26.15
2022-09-07T12:05:49.372Z,25.52
2022-09-07T12:08:15.689Z,26.91
2022-09-07T12:11:03.082Z,26.54
2022-09-07T12:13:57.513Z,25.74
2022-09-07T12:16:56.541Z,25.65
2022-09-07T12:19:24.722Z,26.12
2022-09-07T12:21:51.018Z,25.84
2022-09-07T12:24:33.883Z,25.85
2022-09-07T12:27:02.281Z,26.07
2022-09-07T12:29:29.916Z,26.51
2022-09-07T12:31:59.809Z,26.00
2022-09-07T12:34:33.492Z,26.43
2022-09-07T12:37:35.971Z,25.67
2022-09-07T12:40:30.458Z,24.88
2022-09-07T12:43:32.188Z,25.55
2022-09-07T12:46:00.671Z,26.25
2022-09-07T12:48:30.165Z,26.41
2022-09-07T12:50:59.942Z,26.59
2022-09-07T12:54:00.139Z,26.39
2022-09-07T12:56:38.207Z,26.78
2022-09-07T12:59:33.665Z,27.72
2022-09-07T13:02:18.720Z,26.93
2022-09-07T13:05:06.124Z,27.69
2022-09-07T13:07:41.762Z,27.87
2022-09-07T13:10:26.499Z,27.30
2022-09-07T13:12:54.218Z,26.84
2022-09-07T13:15:52.276Z,26.21
2022-09-07T13:18:28.239Z,25.45
2022-09-07T13:21:06.783Z,26.80
2022-09-07T13:23:40.280Z,26.88
2022-09-07T13:26:09.659Z,27.13
2022-09-07T13:28:50.518Z,28.39
2022-09-07T13:31:25.007Z,28.34
2022-09-07T13:33:52.767Z,28.84
2022-09-07T13:36:21.951Z,28.47
2022-09-07T13:38:49.957Z,27.77
2022-09-07T13:41:21.277Z,27.66
2022-09-07T13:43:48.889Z,27.58
2022-09-07T13:46:41.232Z,28.89
2022-09-07T13:49:23.565Z,29.33
2022-09-07T13:52:13.411Z,29.88
2022-09-07T13:54:58.559Z,30.07
2022-09-07T13:57:28.634Z,30.87
2022-09-07T13:59:55.744Z,30.95
2022-09-07T14:02:24.997Z,30.88
2022-09-07T14:04:52.297Z,31.46
2022-09-07T14:07:24.369Z,31.93
2022-09-07T14:10:14.583Z,31.22
2022-09-07T14:13:05.326Z,30.87
2022-09-07T14:15:39.318Z,29.84
2022-09-07T14:18:13.982Z,29.58
2022-09-07T14:20:44.206Z,30.16
2022-09-07T14:23:31.700Z,29.44
2022-09-07T14:26:18.299Z,29.90
2022-09-07T14:28:46.678Z,30.37
2022-09-07T14:31:15.838Z,28.97
2022-09-07T14:34:00.685Z,29.77
2022-09-07T14:36:45.817Z,30.79
2022-09-07T14:39:15.797Z,30.87
2022-09-07T14:45:29.039Z,28.98
2022-09-07T14:47:56.291Z,28.02
2022-09-07T14:51:13.110Z,26.92
2022-09-07T14:53:47.257Z,26.72
2022-09-07T14:56:19.509Z,26.55
2022-09-07T14:58:46.143Z,26.53
2022-09-07T15:04:02.220Z,26.34
2022-09-07T15:07:02.261Z,25.94
2022-09-07T15:09:35.538Z,25.88
2022-09-07T15:12:04.550Z,26.02
2022-09-07T15:14:31.155Z,26.02
2022-09-07T15:19:50.406Z,25.61
2022-09-07T15:22:18.382Z,25.74
2022-09-07T15:34:09.643Z,26.10
2022-09-07T15:36:37.140Z,26.06
2022-09-07T15:39:04.338Z,26.13
2022-09-07T15:41:30.952Z,26.11
2022-09-07T15:43:57.939Z,26.30
2022-09-07T15:46:25.347Z,26.11
2022-09-07T15:48:54.064Z,25.73
2022-09-07T15:52:07.911Z,25.60
2022-09-07T15:54:36.825Z,25.40
2022-09-07T15:59:52.358Z,24.93
2022-09-07T16:05:30.785Z,25.10
2022-09-07T16:10:44.354Z,24.87
2022-09-07T16:13:12.110Z,25.22
2022-09-07T16:15:45.784Z,25.85
2022-09-07T16:18:16.422Z,27.39
2022-09-07T16:20:43.374Z,29.13
2022-09-07T16:23:13.712Z,29.75
2022-09-07T16:25:42.439Z,30.23
2022-09-07T16:28:09.536Z,30.03
2022-09-07T16:30:39.409Z,30.81
2022-09-07T16:33:06.108Z,30.41
2022-09-07T16:35:32.890Z,30.38
2022-09-07T16:40:46.421Z,29.40
2022-09-07T16:43:12.870Z,29.76
2022-09-07T16:48:25.632Z,31.48
2022-09-07T16:51:00.415Z,31.98
2022-09-07T16:53:29.031Z,32.07
2022-09-07T16:56:12.416Z,31.47
2022-09-07T16:58:40.854Z,30.55
2022-09-07T17:01:09.127Z,28.88
2022-09-07T17:03:36.668Z,28.40
2022-09-07T17:06:04.565Z,27.64
2022-09-07T17:08:31.389Z,27.06
2022-09-07T17:11:02.511Z,26.46
2022-09-07T17:13:30.782Z,26.54
2022-09-07T17:16:08.969Z,25.95
2022-09-07T17:21:22.696Z,25.84
2022-09-07T17:23:54.892Z,25.68
2022-09-07T17:26:22.494Z,25.71
2022-09-07T17:28:50.032Z,25.58
2022-09-07T17:34:07.254Z,25.39
2022-09-07T17:36:34.596Z,24.95
2022-09-07T17:39:18.195Z,24.76
2022-09-07T17:41:46.767Z,24.46
2022-09-07T17:44:34.699Z,24.40
2022-09-07T17:50:44.523Z,23.92
2022-09-07T17:56:58.462Z,23.68
2022-09-07T18:03:38.240Z,23.28
2022-09-07T18:06:53.830Z,23.17
2022-09-07T18:09:20.315Z,23.06
2022-09-07T18:11:48.682Z,22.86
2022-09-07T18:14:15.448Z,22.71
2022-09-07T18:16:43.530Z,22.59
2022-09-07T18:19:11.187Z,22.48
2022-09-07T18:21:38.409Z,22.60
2022-09-07T18:24:07.932Z,22.44
2022-09-07T18:26:36.377Z,22.52
2022-09-07T18:29:04.769Z,22.61
2022-09-07T18:31:33.390Z,22.54
2022-09-07T18:34:01.665Z,22.64
2022-09-07T18:36:29.101Z,22.64
2022-09-07T18:38:55.657Z,22.58
2022-09-07T18:41:22.051Z,22.35
2022-09-07T18:43:48.696Z,22.12
2022-09-07T18:46:19.350Z,21.87
2022-09-07T18:48:45.928Z,21.68
2022-09-07T18:51:12.905Z,21.66
2022-09-07T18:53:39.843Z,21.49
2022-09-07T18:56:17.802Z,21.44
2022-09-07T18:58:45.546Z,21.46
2022-09-07T19:01:14.445Z,21.57
2022-09-07T19:03:41.584Z,21.68
2022-09-07T19:06:13.007Z,21.68
2022-09-07T19:08:40.978Z,21.55
2022-09-07T19:11:17.802Z,21.46
2022-09-07T19:13:44.857Z,21.30
2022-09-07T19:16:13.950Z,21.20
2022-09-07T19:19:40.283Z,21.18
2022-09-07T19:22:06.694Z,21.35
2022-09-07T19:24:35.411Z,21.19
2022-09-07T19:27:01.988Z,21.18
2022-09-07T19:29:29.212Z,21.15
2022-09-07T19:32:05.533Z,20.91
2022-09-07T19:34:40.045Z,20.80
2022-09-07T19:37:48.365Z,20.87
2022-09-07T19:40:19.112Z,20.79
2022-09-07T19:42:45.944Z,20.95
2022-09-07T19:45:12.438Z,21.01
2022-09-07T19:47:38.848Z,20.93
2022-09-07T19:50:06.074Z,20.81
2022-09-07T19:52:32.809Z,20.85
2022-09-07T19:55:18.873Z,20.53
2022-09-07T19:57:47.352Z,20.28
2022-09-07T20:00:14.182Z,20.33
2022-09-07T20:02:40.687Z,20.29
2022-09-07T20:05:07.774Z,20.10
2022-09-07T20:07:34.163Z,20.08
2022-09-07T20:10:00.799Z,20.22
2022-09-07T20:12:27.248Z,20.26
2022-09-07T20:14:53.813Z,20.05
2022-09-07T20:17:20.426Z,20.29
2022-09-07T20:19:46.813Z,20.10
2022-09-07T20:22:13.249Z,19.88
2022-09-07T20:24:39.927Z,19.80
2022-09-07T20:27:06.333Z,19.72
2022-09-07T20:29:32.932Z,19.86
2022-09-07T20:32:00.370Z,19.82
2022-09-07T20:34:28.040Z,19.84
2022-09-07T20:36:54.841Z,19.83
2022-09-07T20:39:21.794Z,19.87
2022-09-07T20:41:48.235Z,19.77
2022-09-07T20:44:14.629Z,19.69
2022-09-07T20:46:41.181Z,19.68
2022-09-07T20:49:07.919Z,19.73
2022-09-07T20:51:34.541Z,19.79
2022-09-07T20:54:01.204Z,19.77
2022-09-07T20:56:29.022Z,19.78
2022-09-07T20:58:57.645Z,19.71
2022-09-07T21:01:24.642Z,19.68
2022-09-07T21:03:53.957Z,19.55
2022-09-07T21:06:21.827Z,19.67
2022-09-07T21:08:49.523Z,19.68
2022-09-07T21:11:28.033Z,19.71
2022-09-07T21:13:59.765Z,19.69
2022-09-07T21:16:27.044Z,19.48
2022-09-07T21:18:55.730Z,19.38
2022-09-07T21:21:23.313Z,19.41
2022-09-07T21:23:55.463Z,19.34
2022-09-07T21:26:21.969Z,19.27
2022-09-07T21:28:48.827Z,19.13
2022-09-07T21:31:15.421Z,19.09
2022-09-07T21:33:42.027Z,19.01
2022-09-07T21:36:11.330Z,19.01
2022-09-07T21:38:39.071Z,19.14
2022-09-07T21:41:10.820Z,19.05
2022-09-07T21:43:37.591Z,19.04
2022-09-07T21:46:16.351Z,18.94
2022-09-07T21:48:43.937Z,18.92
2022-09-07T21:51:10.377Z,19.07
2022-09-07T21:53:37.028Z,18.96
2022-09-07T21:56:09.958Z,18.90
2022-09-07T21:58:36.583Z,18.90
2022-09-07T22:01:17.209Z,18.58
2022-09-07T22:03:45.175Z,18.51
2022-09-07T22:06:12.501Z,18.55
2022-09-07T22:08:40.105Z,18.58
2022-09-07T22:11:09.047Z,18.53
2022-09-07T22:13:35.986Z,18.56
2022-09-07T22:16:03.618Z,18.61
2022-09-07T22:18:31.041Z,18.60
2022-09-07T22:21:09.752Z,18.47
2022-09-07T22:23:39.169Z,18.44
2022-09-07T22:26:06.185Z,18.34
2022-09-07T22:28:32.798Z,18.25
2022-09-07T22:31:11.725Z,18.16
2022-09-07T22:33:39.271Z,18.10
2022-09-07T22:36:11.441Z,18.09
2022-09-07T22:38:38.248Z,18.10
2022-09-07T22:41:13.992Z,17.80
2022-09-07T22:43:40.810Z,17.77
2022-09-07T22:46:07.353Z,17.84
2022-09-07T22:48:33.829Z,17.84
2022-09-07T22:51:01.006Z,17.80
2022-09-07T22:53:28.243Z,17.83
2022-09-07T22:55:55.461Z,17.78
2022-09-07T22:58:23.722Z,17.73
2022-09-07T23:00:51.259Z,17.78
2022-09-07T23:03:18.395Z,17.73
2022-09-07T23:05:45.082Z,17.92
2022-09-07T23:09:01.170Z,17.83
2022-09-07T23:11:28.058Z,17.93
2022-09-07T23:13:56.481Z,17.79
2022-09-07T23:16:23.347Z,17.96
2022-09-07T23:18:50.566Z,17.95
2022-09-07T23:21:17.431Z,17.75
2022-09-07T23:23:44.301Z,17.85
2022-09-07T23:26:10.914Z,17.85
2022-09-07T23:28:37.286Z,17.92
2022-09-07T23:31:03.867Z,17.94
2022-09-07T23:33:30.566Z,17.84
2022-09-07T23:36:01.730Z,18.01
2022-09-07T23:38:28.861Z,18.19
2022-09-07T23:40:57.127Z,18.20
2022-09-07T23:43:24.700Z,18.05
2022-09-07T23:45:51.074Z,17.83
2022-09-07T23:48:17.569Z,17.89
2022-09-07T23:50:44.975Z,17.84
2022-09-07T23:53:11.857Z,17.78
2022-09-07T23:55:38.609Z,17.80
2022-09-07T23:58:05.761Z,17.81
